Time;durP1;ratioP1;P1;durP2;ratioP2;P2;SDS_P1;SDS_P2;PMS_P1;PMS_P2;Temp;Humidity;BMP_temperature;BMP_pressure;BME280_temperature;BME280_humidity;BME280_pressure;Samples;Min_cycle;Max_cycle;Signal;HPM_P1;HPM_P2
2021/05/05 00:00:17;;;;;;;34.13;9.35;;;;;;;31.77;51.57;100745.59;5051827;28;66532;-36
2021/05/05 00:02:47;;;;;;;26.98;10.38;;;;;;;31.83;51.95;100750.09;5054619;28;70332;-38
2021/05/05 00:05:17;;;;;;;27.08;9.30;;;;;;;31.87;52.82;100757.78;5052358;28;66388;-36
2021/05/05 00:07:47;;;;;;;28.90;9.45;;;;;;;31.87;52.94;100761.31;5052361;28;69564;-36
2021/05/05 00:10:17;;;;;;;21.63;9.75;;;;;;;31.93;52.95;100759.59;5055828;28;66395;-36
2021/05/05 00:12:48;;;;;;;35.70;9.93;;;;;;;31.94;53.36;100761.25;5043615;28;70016;-36
2021/05/05 00:15:24;;;;;;;23.83;9.20;;;;;;;31.69;53.63;100750.53;5045060;28;65316;-36
2021/05/05 00:17:54;;;;;;;27.40;9.52;;;;;;;31.81;52.89;100773.91;5049212;28;69003;-36
2021/05/05 00:20:24;;;;;;;29.80;9.32;;;;;;;31.80;52.88;100774.16;5044303;28;65936;-36
2021/05/05 00:22:54;;;;;;;26.45;8.82;;;;;;;31.84;53.04;100786.19;5047403;28;69226;-36
2021/05/05 00:25:24;;;;;;;26.20;8.98;;;;;;;31.80;52.77;100782.28;5051720;28;64840;-36
2021/05/05 00:27:54;;;;;;;23.73;9.15;;;;;;;31.90;52.14;100782.56;5041695;28;69549;-35
2021/05/05 00:30:24;;;;;;;16.70;8.60;;;;;;;31.92;52.05;100788.59;5053682;28;66160;-36
2021/05/05 00:32:54;;;;;;;33.67;9.15;;;;;;;31.93;52.11;100787.56;5051091;28;70153;-35
2021/05/05 00:35:24;;;;;;;28.42;8.80;;;;;;;31.97;51.79;100791.47;5052302;28;65396;-35
2021/05/05 00:37:54;;;;;;;25.95;8.70;;;;;;;31.99;51.95;100804.81;5052056;28;69353;-35
2021/05/05 00:40:24;;;;;;;24.88;8.50;;;;;;;31.97;51.62;100799.59;5044924;28;65875;-35
2021/05/05 00:42:54;;;;;;;22.67;8.82;;;;;;;31.94;51.50;100796.53;5049010;28;69815;-36
2021/05/05 00:45:24;;;;;;;24.05;8.77;;;;;;;31.98;51.19;100806.72;5051638;28;66346;-36
2021/05/05 00:47:54;;;;;;;22.10;8.38;;;;;;;32.01;51.78;100803.53;5055199;28;69495;-36
2021/05/05 00:50:24;;;;;;;23.95;8.77;;;;;;;32.07;51.28;100814.50;5056769;28;66213;-36
2021/05/05 00:52:54;;;;;;;17.42;8.00;;;;;;;32.09;50.88;100817.81;5057370;28;69959;-36
2021/05/05 00:55:24;;;;;;;21.52;8.90;;;;;;;32.13;51.37;100814.41;5041538;28;65323;-36
2021/05/05 00:57:54;;;;;;;16.98;8.80;;;;;;;32.17;51.07;100812.06;5048531;28;69163;-36
2021/05/05 01:00:25;;;;;;;21.08;7.78;;;;;;;32.16;51.04;100818.56;5044080;28;65638;-42
2021/05/05 01:02:55;;;;;;;16.70;7.47;;;;;;;32.18;50.74;100816.44;5049594;28;70184;-36
2021/05/05 01:05:25;;;;;;;16.30;7.95;;;;;;;32.21;51.01;100821.41;5038098;28;65839;-36
2021/05/05 01:07:56;;;;;;;16.33;7.40;;;;;;;32.23;50.52;100813.84;5045748;28;69967;-36
2021/05/05 01:10:26;;;;;;;20.42;8.23;;;;;;;32.23;50.47;100817.41;5044510;28;65159;-36
2021/05/05 01:12:56;;;;;;;17.42;7.53;;;;;;;32.25;50.53;100820.69;5037766;28;69936;-36
2021/05/05 01:15:27;;;;;;;15.90;8.45;;;;;;;32.27;50.31;100815.88;5044671;28;66349;-36
2021/05/05 01:17:57;;;;;;;16.73;8.95;;;;;;;32.24;50.57;100815.53;5056304;28;70352;-36
2021/05/05 01:20:29;;;;;;;15.65;8.63;;;;;;;32.31;50.35;100810.81;5052571;28;67565;-36
2021/05/05 01:23:00;;;;;;;18.52;8.50;;;;;;;32.33;50.59;100824.97;5039177;28;70103;-36
2021/05/05 01:25:31;;;;;;;21.45;9.23;;;;;;;32.35;50.00;100817.44;5054017;28;68154;-37
2021/05/05 01:28:02;;;;;;;19.08;8.40;;;;;;;32.40;49.79;100825.72;5056706;28;71155;-35
2021/05/05 01:30:33;;;;;;;21.38;8.77;;;;;;;32.44;50.02;100826.91;5044337;28;66159;-36
2021/05/05 01:33:10;;;;;;;16.38;8.35;;;;;;;32.47;49.88;100829.19;5045074;28;70116;-35
2021/05/05 01:35:41;;;;;;;26.27;8.75;;;;;;;32.54;49.75;100825.53;5039819;28;65827;-36
2021/05/05 01:38:13;;;;;;;10.20;7.70;;;;;;;32.56;49.83;100823.41;5068057;28;69782;-36
2021/05/05 01:40:44;;;;;;;20.23;8.80;;;;;;;32.60;49.33;100830.06;5039156;28;65990;-35
2021/05/05 01:43:14;;;;;;;18.60;8.20;;;;;;;32.62;49.25;100834.16;5055195;28;71329;-35
2021/05/05 01:45:44;;;;;;;24.10;8.43;;;;;;;32.64;49.56;100825.78;5055096;28;66448;-35
2021/05/05 01:48:16;;;;;;;14.55;7.50;;;;;;;32.70;49.32;100827.56;5049436;28;70328;-35
2021/05/05 01:50:47;;;;;;;14.10;8.00;;;;;;;32.73;49.04;100835.25;5071199;28;66007;-36
2021/05/05 01:53:17;;;;;;;17.00;7.57;;;;;;;32.74;48.92;100831.50;5053658;28;69676;-36
2021/05/05 01:55:48;;;;;;;13.60;7.30;;;;;;;32.82;49.27;100830.28;5039075;28;66737;-37
2021/05/05 01:58:26;;;;;;;14.20;7.93;;;;;;;32.84;49.27;100842.56;5052802;28;69887;-37
2021/05/05 02:01:01;;;;;;;10.80;6.72;;;;;;;32.90;49.23;100841.66;5052126;28;66351;-36
2021/05/05 02:03:32;;;;;;;11.45;7.38;;;;;;;32.92;48.80;100855.81;5046152;28;70099;-36
2021/05/05 02:06:17;;;;;;;15.57;7.50;;;;;;;32.97;49.15;100841.53;5054700;27;65864;-36
2021/05/05 02:08:58;;;;;;;14.82;7.20;;;;;;;33.02;48.81;100854.47;5043212;28;69216;-36
2021/05/05 02:11:29;;;;;;;10.60;7.03;;;;;;;33.03;48.76;100846.06;5052994;28;65017;-36
2021/05/05 02:14:00;;;;;;;10.57;7.00;;;;;;;33.09;48.90;100838.84;5046487;28;69977;-36
2021/05/05 02:16:30;;;;;;;9.90;6.75;;;;;;;33.11;48.41;100839.44;5051873;28;65506;-36
2021/05/05 02:19:01;;;;;;;12.65;6.85;;;;;;;33.19;48.49;100854.59;5044764;28;69933;-36
2021/05/05 02:21:31;;;;;;;7.50;6.80;;;;;;;33.21;48.32;100849.72;5054742;28;66308;-36
2021/05/05 02:24:03;;;;;;;14.57;7.00;;;;;;;33.06;48.10;100812.16;5043879;28;68890;-36
2021/05/05 02:26:33;;;;;;;;;;;;;;;33.24;47.88;100851.94;5045580;28;65282;-35
2021/05/05 02:29:03;;;;;;;13.15;7.28;;;;;;;33.35;47.54;100843.81;5039849;28;70040;-36
2021/05/05 02:32:01;;;;;;;9.07;6.68;;;;;;;33.36;47.58;100844.63;5050602;28;64242;-36
2021/05/05 02:34:33;;;;;;;9.15;6.50;;;;;;;33.40;48.08;100845.78;5052032;28;70388;-36
2021/05/05 02:37:06;;;;;;;10.07;6.13;;;;;;;33.34;47.66;100820.38;5051735;28;66616;-36
2021/05/05 02:39:40;;;;;;;10.55;6.63;;;;;;;33.36;47.59;100818.25;5044537;28;70559;-35
2021/05/05 02:42:13;;;;;;;13.80;6.22;;;;;;;33.51;47.47;100830.53;5055132;28;65619;-35
2021/05/05 02:44:48;;;;;;;8.68;6.65;;;;;;;33.54;47.56;100835.53;5052960;28;69879;-36
2021/05/05 02:47:23;;;;;;;15.27;6.78;;;;;;;33.50;47.32;100810.66;5056423;28;66317;-36
2021/05/05 02:49:55;;;;;;;10.40;6.63;;;;;;;33.59;47.53;100822.84;5056441;28;69581;-37
2021/05/05 02:52:25;;;;;;;11.77;6.38;;;;;;;33.55;47.68;100807.28;5056863;28;65919;-36
2021/05/05 02:54:55;;;;;;;17.27;6.65;;;;;;;33.64;47.18;100816.69;5052662;28;69299;-36
2021/05/05 02:57:25;;;;;;;11.10;6.32;;;;;;;33.68;47.45;100820.56;5047040;28;66167;-36
2021/05/05 02:59:55;;;;;;;10.98;7.05;;;;;;;33.72;47.28;100821.75;5058488;28;70188;-37
2021/05/05 03:02:26;;;;;;;12.00;6.60;;;;;;;33.76;47.17;100822.91;5076964;27;65299;-36
2021/05/05 03:04:56;;;;;;;7.67;5.97;;;;;;;33.78;47.25;100817.25;5061526;27;69866;-37
2021/05/05 03:07:26;;;;;;;9.25;6.47;;;;;;;33.81;47.36;100806.69;5055093;28;65800;-37
2021/05/05 03:09:57;;;;;;;10.45;6.70;;;;;;;33.85;47.04;100811.66;5047117;28;69789;-36
2021/05/05 03:12:27;;;;;;;9.38;6.47;;;;;;;33.85;46.99;100798.91;5052640;28;66549;-37
2021/05/05 03:14:57;;;;;;;8.90;6.10;;;;;;;33.92;46.87;100804.19;5055028;28;70270;-37
2021/05/05 03:17:28;;;;;;;18.42;6.60;;;;;;;33.94;46.83;100802.06;5070516;28;66106;-37
2021/05/05 03:19:58;;;;;;;8.23;5.85;;;;;;;33.93;47.11;100786.78;5049383;28;70006;-37
2021/05/05 03:22:28;;;;;;;13.35;6.15;;;;;;;33.99;46.80;100788.53;5075718;27;65548;-37
2021/05/05 03:24:58;;;;;;;13.18;6.22;;;;;;;34.03;46.73;100797.88;5057418;27;69975;-37
2021/05/05 03:27:28;;;;;;;10.68;6.57;;;;;;;34.07;46.63;100784.63;5060562;28;65899;-37
2021/05/05 03:29:58;;;;;;;16.27;6.45;;;;;;;34.07;46.53;100780.00;5075551;27;69562;-37
2021/05/05 03:32:29;;;;;;;6.68;5.65;;;;;;;34.14;46.58;100788.03;5060882;27;66371;-37
2021/05/05 03:34:59;;;;;;;12.60;5.85;;;;;;;34.14;46.63;100779.84;5054462;28;68903;-37
2021/05/05 03:37:33;;;;;;;11.02;6.22;;;;;;;34.20;46.55;100776.97;5071434;27;65578;-37
2021/05/05 03:40:09;;;;;;;18.27;5.87;;;;;;;34.10;46.36;100748.75;5062318;28;71369;-40
2021/05/05 03:42:39;;;;;;;13.77;5.95;;;;;;;34.28;46.49;100759.41;5060003;27;66162;-37
2021/05/05 03:45:10;;;;;;;6.47;5.82;;;;;;;34.30;46.66;100753.69;5056229;28;69938;-37
2021/05/05 03:47:40;;;;;;;11.20;6.03;;;;;;;34.35;46.25;100751.91;5055986;28;65804;-37
2021/05/05 03:50:11;;;;;;;7.13;5.47;;;;;;;34.33;46.41;100736.91;5052748;28;69985;-37
2021/05/05 03:52:41;;;;;;;9.90;5.82;;;;;;;34.40;46.21;100745.72;5055695;28;65230;-37
2021/05/05 03:55:12;;;;;;;12.40;5.40;;;;;;;34.39;46.18;100734.00;5056563;28;69788;-37
2021/05/05 03:57:41;;;;;;;8.68;5.90;;;;;;;34.43;46.24;100728.88;5053867;28;65687;-37
2021/05/05 04:00:12;;;;;;;7.55;6.10;;;;;;;34.48;45.80;100731.69;5052216;28;69607;-37
2021/05/05 04:02:43;;;;;;;;;;;;;;;34.46;46.20;100722.94;5057063;28;65731;-36
2021/05/05 04:05:14;;;;;;;11.98;5.65;;;;;;;34.57;45.88;100735.66;5066592;28;70056;-36
2021/05/05 04:07:44;;;;;;;12.97;5.47;;;;;;;34.62;45.83;100724.03;5076204;27;66930;-37
2021/05/05 04:10:14;;;;;;;12.52;6.00;;;;;;;34.63;45.82;100718.34;5064593;27;70762;-37
2021/05/05 04:12:44;;;;;;;6.13;5.30;;;;;;;34.63;45.80;100723.78;5054865;28;65887;-37
2021/05/05 04:15:32;;;;;;;9.35;5.40;;;;;;;34.66;46.05;100717.84;5036514;28;69223;-37
2021/05/05 04:18:19;;;;;;;8.80;5.18;;;;;;;34.70;45.77;100713.53;5053305;28;65673;-37
2021/05/05 04:21:08;;;;;;;7.53;5.30;;;;;;;34.64;45.87;100692.72;5057058;28;69683;-37
2021/05/05 04:23:55;;;;;;;10.13;5.18;;;;;;;34.72;45.37;100710.56;5068443;28;66236;-37
2021/05/05 04:26:26;;;;;;;8.23;5.30;;;;;;;34.74;45.55;100697.50;5062149;27;69807;-38
2021/05/05 04:28:56;;;;;;;7.43;4.97;;;;;;;34.80;45.87;100701.09;5051388;28;65465;-37
2021/05/05 04:31:26;;;;;;;5.80;5.07;;;;;;;34.80;45.79;100701.09;5048036;28;69700;-36
2021/05/05 04:33:56;;;;;;;7.35;5.03;;;;;;;34.85;45.19;100684.84;5058522;28;66079;-36
2021/05/05 04:36:26;;;;;;;17.55;5.43;;;;;;;34.90;45.21;100691.19;5059610;28;69038;-35
2021/05/05 04:38:56;;;;;;;6.13;4.65;;;;;;;34.92;45.35;100682.75;5059990;28;66338;-36
2021/05/05 04:41:27;;;;;;;8.88;5.35;;;;;;;34.93;45.49;100678.94;5074704;28;69148;-36
2021/05/05 04:43:56;;;;;;;7.72;4.82;;;;;;;34.97;45.27;100666.47;5069038;27;66352;-36
2021/05/05 04:46:26;;;;;;;10.63;4.70;;;;;;;35.01;45.08;100664.06;5058025;28;70023;-36
2021/05/05 04:48:56;;;;;;;12.98;5.22;;;;;;;35.03;45.17;100679.09;5068353;28;66045;-36
2021/05/05 04:51:26;;;;;;;14.23;4.65;;;;;;;35.07;45.20;100661.16;5063124;27;70140;-37
2021/05/05 04:53:56;;;;;;;6.28;4.90;;;;;;;35.08;45.15;100653.84;5058722;28;65131;-37
2021/05/05 04:56:26;;;;;;;10.65;4.95;;;;;;;35.12;44.75;100661.22;5056338;28;69311;-37
2021/05/05 04:59:02;;;;;;;9.65;4.60;;;;;;;35.14;44.97;100648.16;5060381;28;65617;-37
2021/05/05 05:01:32;;;;;;;8.65;4.88;;;;;;;35.16;45.12;100645.19;5060134;28;70342;-37
2021/05/05 05:04:02;;;;;;;6.97;4.47;;;;;;;35.17;44.92;100630.47;5078669;27;67039;-37
2021/05/05 05:06:32;;;;;;;6.00;4.57;;;;;;;35.23;44.73;100631.34;5063455;27;69969;-37
2021/05/05 05:09:03;;;;;;;6.88;4.60;;;;;;;35.23;44.69;100628.63;5078731;28;65111;-37
2021/05/05 05:11:33;;;;;;;5.87;4.77;;;;;;;35.26;44.74;100619.94;5066284;27;69326;-37
2021/05/05 05:14:04;;;;;;;5.10;4.60;;;;;;;35.28;44.72;100609.59;5058375;28;65935;-43
2021/05/05 05:16:34;;;;;;;6.80;5.22;;;;;;;35.33;44.65;100612.38;5065699;28;69900;-36
2021/05/05 05:19:04;;;;;;;7.97;4.30;;;;;;;35.34;44.67;100595.75;5078515;27;65404;-36
2021/05/05 05:21:34;;;;;;;9.13;4.13;;;;;;;35.36;44.96;100595.50;5077019;28;69188;-38
2021/05/05 05:24:05;;;;;;;4.35;3.88;;;;;;;35.38;44.39;100576.97;5066133;27;66022;-37
2021/05/05 05:26:36;;;;;;;9.60;4.50;;;;;;;35.45;44.45;100583.03;5057406;28;69759;-36
2021/05/05 05:29:06;;;;;;;6.15;4.55;;;;;;;35.50;44.41;100574.91;5074321;27;66085;-37
2021/05/05 05:31:36;;;;;;;11.48;3.95;;;;;;;35.51;44.61;100560.19;5069182;27;69996;-36
2021/05/05 05:34:07;;;;;;;8.55;4.50;;;;;;;35.55;44.36;100565.94;5058181;28;65329;-36
2021/05/05 05:36:37;;;;;;;6.97;4.30;;;;;;;35.56;44.38;100557.53;5072190;28;70040;-37
2021/05/05 05:39:08;;;;;;;5.55;4.43;;;;;;;35.58;44.13;100549.91;5055510;28;66195;-37
2021/05/05 05:41:38;;;;;;;7.80;3.70;;;;;;;35.62;44.61;100554.84;5055274;28;70100;-36
2021/05/05 05:44:08;;;;;;;8.25;4.25;;;;;;;35.66;44.55;100547.78;5048967;28;66597;-37
2021/05/05 05:46:38;;;;;;;8.23;4.13;;;;;;;35.61;44.05;100536.81;5050029;28;69938;-37
2021/05/05 05:49:10;;;;;;;12.35;4.18;;;;;;;35.70;44.37;100546.19;5054610;28;65143;-37
2021/05/05 05:51:40;;;;;;;5.05;3.80;;;;;;;35.76;44.12;100528.75;5054899;28;69343;-37
2021/05/05 05:54:10;;;;;;;7.22;4.30;;;;;;;35.81;44.41;100531.53;5054737;28;66183;-36
2021/05/05 05:56:41;;;;;;;6.68;4.18;;;;;;;35.85;44.17;100526.34;5046367;28;69996;-37
2021/05/05 05:59:11;;;;;;;4.55;4.18;;;;;;;35.88;44.00;100540.28;5055303;28;65493;-37
2021/05/05 06:01:41;;;;;;;4.30;3.90;;;;;;;35.92;44.02;100525.03;5054478;28;70044;-36
2021/05/05 06:04:11;;;;;;;8.13;3.95;;;;;;;35.96;44.11;100517.97;5048651;28;65939;-36
2021/05/05 06:06:42;;;;;;;4.45;3.47;;;;;;;36.00;43.82;100523.75;5057779;28;69322;-36
2021/05/05 06:09:12;;;;;;;4.60;4.20;;;;;;;36.02;44.03;100505.16;5053974;28;65388;-36
2021/05/05 06:11:42;;;;;;;8.10;3.90;;;;;;;36.09;43.68;100510.44;5045267;28;70123;-37
2021/05/05 06:14:14;;;;;;;4.32;3.40;;;;;;;36.15;44.09;100509.38;5054712;28;65399;-37
2021/05/05 06:16:44;;;;;;;4.30;3.78;;;;;;;36.20;43.46;100501.22;5047492;28;70470;-37
2021/05/05 06:19:14;;;;;;;5.82;4.38;;;;;;;36.22;43.69;100496.31;5056055;28;65244;-37
2021/05/05 06:21:45;;;;;;;8.23;3.80;;;;;;;36.29;43.26;100493.31;5055060;28;68306;-37
2021/05/05 06:24:15;;;;;;;8.55;4.00;;;;;;;36.30;43.53;100484.84;5048987;28;66618;-37
2021/05/05 06:26:45;;;;;;;8.63;3.38;;;;;;;36.37;43.78;100484.63;5052163;28;69534;-37
2021/05/05 06:29:17;;;;;;;4.53;3.47;;;;;;;36.43;43.51;100481.63;5058168;28;65624;-38
2021/05/05 06:31:48;;;;;;;6.47;3.50;;;;;;;36.47;43.80;100490.94;5054581;28;70637;-37
2021/05/05 06:34:18;;;;;;;9.55;3.63;;;;;;;36.51;43.17;100482.22;5056705;28;66102;-37
2021/05/05 06:36:48;;;;;;;4.90;3.40;;;;;;;36.57;43.12;100472.97;5057725;28;69755;-37
2021/05/05 06:39:18;;;;;;;3.70;3.25;;;;;;;36.62;42.79;100470.25;5058262;28;66101;-36
2021/05/05 06:41:48;;;;;;;5.10;3.38;;;;;;;36.70;43.26;100469.72;5075462;27;69855;-37
2021/05/05 06:44:18;;;;;;;8.07;3.70;;;;;;;36.77;43.31;100461.25;5035772;28;65899;-37
2021/05/05 06:46:54;;;;;;;8.35;3.70;;;;;;;36.79;42.70;100448.97;5054722;28;70055;-37
2021/05/05 06:49:25;;;;;;;10.20;3.47;;;;;;;36.89;42.63;100448.16;5058667;28;65881;-35
2021/05/05 06:51:54;;;;;;;6.07;3.47;;;;;;;36.94;42.81;100436.41;5070542;28;69981;-36
2021/05/05 06:54:24;;;;;;;8.48;3.88;;;;;;;37.00;42.43;100432.56;5062780;28;66556;-36
2021/05/05 06:56:54;;;;;;;5.55;3.58;;;;;;;37.03;42.99;100432.06;5061445;28;70139;-37
2021/05/05 06:59:24;;;;;;;5.43;3.35;;;;;;;37.11;42.86;100428.75;5058955;27;65372;-36
2021/05/05 07:01:54;;;;;;;5.85;3.60;;;;;;;37.15;42.10;100435.34;5061024;28;69939;-36
2021/05/05 07:04:25;;;;;;;4.97;3.20;;;;;;;37.20;42.22;100427.13;5059435;28;65890;-37
2021/05/05 07:06:55;;;;;;;5.57;3.58;;;;;;;37.25;41.90;100424.41;5056287;28;69154;-36
2021/05/05 07:09:48;;;;;;;6.80;3.30;;;;;;;37.33;42.25;100412.91;5056416;27;66707;-36
2021/05/05 07:12:18;;;;;;;6.97;3.28;;;;;;;37.39;42.35;100418.34;5049880;28;70044;-36
2021/05/05 07:14:49;;;;;;;8.60;3.22;;;;;;;37.48;41.86;100412.09;5046649;28;66367;-36
2021/05/05 07:17:19;;;;;;;3.60;3.20;;;;;;;37.52;42.28;100423.28;5073985;28;69523;-36
2021/05/05 07:19:50;;;;;;;5.65;3.28;;;;;;;37.56;41.35;100413.44;5068993;27;66185;-37
2021/05/05 07:22:21;;;;;;;4.80;2.90;;;;;;;37.60;42.13;100403.56;5042186;28;70215;-37
2021/05/05 07:24:51;;;;;;;10.07;3.30;;;;;;;37.63;41.49;100397.53;5058273;28;66505;-36
2021/05/05 07:27:22;;;;;;;3.33;3.05;;;;;;;37.69;42.15;100401.88;5056878;28;70876;-38
2021/05/05 07:29:53;;;;;;;11.63;2.90;;;;;;;37.70;41.46;100400.00;5059318;28;67688;-36
2021/05/05 07:32:22;;;;;;;5.22;3.05;;;;;;;37.74;41.59;100388.19;5062851;27;69908;-36
2021/05/05 07:34:54;;;;;;;8.60;3.10;;;;;;;37.81;41.38;100398.00;5050749;28;66761;-36
2021/05/05 07:40:56;;;;;;;11.63;3.20;;;;;;;37.93;41.30;100384.84;5057190;28;66234;-37
2021/05/05 07:51:19;;;;;;;4.90;3.30;;;;;;;38.08;40.83;100387.53;5036724;28;65599;-36
2021/05/05 07:53:49;;;;;;;4.05;3.17;;;;;;;38.07;41.49;100380.41;5053909;28;69205;-36
2021/05/05 07:56:18;;;;;;;3.63;2.88;;;;;;;38.15;41.14;100398.19;5059395;28;66695;-36
2021/05/05 07:58:47;;;;;;;3.17;2.85;;;;;;;38.17;41.43;100393.22;5060511;28;70168;-36
2021/05/05 08:01:17;;;;;;;7.45;3.47;;;;;;;38.09;40.75;100389.19;5063895;28;66657;-36
2021/05/05 08:03:48;;;;;;;6.78;3.63;;;;;;;38.20;40.73;100407.19;5068948;27;70546;-35
2021/05/05 08:06:18;;;;;;;7.28;3.40;;;;;;;38.19;41.14;100407.47;5051165;28;65987;-36
2021/05/05 08:08:48;;;;;;;13.65;3.60;;;;;;;38.19;41.55;100427.44;5078425;27;69899;-36
2021/05/05 08:11:19;;;;;;;11.35;3.50;;;;;;;38.23;41.32;100425.00;5060564;28;66121;-38
2021/05/05 08:13:53;;;;;;;11.35;3.60;;;;;;;38.29;40.84;100434.00;5060017;28;70186;-36
2021/05/05 08:16:23;;;;;;;10.53;3.93;;;;;;;38.26;41.07;100420.88;5057853;28;65533;-37
2021/05/05 08:18:54;;;;;;;4.63;3.40;;;;;;;38.24;40.96;100412.91;5075700;28;69047;-36
2021/05/05 08:21:26;;;;;;;5.63;3.30;;;;;;;38.22;41.32;100407.72;5072933;27;65349;-36
2021/05/05 08:23:58;;;;;;;8.23;3.35;;;;;;;38.28;41.68;100405.78;5060625;28;69831;-37
2021/05/05 08:26:30;;;;;;;6.43;3.30;;;;;;;38.17;41.71;100412.41;5064714;28;65144;-37
2021/05/05 08:29:00;;;;;;;7.22;3.75;;;;;;;38.22;41.36;100417.84;5060407;28;69863;-36
2021/05/05 08:31:30;;;;;;;6.35;3.67;;;;;;;38.19;41.59;100419.22;5062692;28;66016;-35
2021/05/05 08:34:00;;;;;;;3.92;3.35;;;;;;;38.18;41.96;100406.66;5061297;28;69822;-36
2021/05/05 08:36:31;;;;;;;10.93;3.60;;;;;;;38.18;41.26;100390.22;5061928;28;65522;-35
2021/05/05 08:39:14;;;;;;;4.63;3.42;;;;;;;38.09;41.89;100380.16;5070982;27;70041;-35
2021/05/05 08:41:44;;;;;;;8.95;3.90;;;;;;;38.07;41.95;100374.94;5061877;28;65828;-35
2021/05/05 08:44:15;;;;;;;4.97;3.30;;;;;;;38.10;42.07;100384.53;5059990;28;69956;-36
2021/05/05 08:46:48;;;;;;;6.75;3.47;;;;;;;37.97;42.12;100364.03;5056716;28;65447;-35
2021/05/05 08:49:18;;;;;;;4.93;3.65;;;;;;;38.06;41.67;100373.31;5058087;28;69150;-36
2021/05/05 08:51:50;;;;;;;7.90;3.55;;;;;;;38.05;42.19;100379.88;5053928;28;66099;-36
2021/05/05 08:54:20;;;;;;;5.97;3.17;;;;;;;37.94;41.90;100370.03;5057309;27;69096;-36
2021/05/05 08:56:50;;;;;;;14.80;3.50;;;;;;;38.00;42.05;100407.28;5061240;28;65906;-36
2021/05/05 08:59:20;;;;;;;6.35;3.15;;;;;;;37.96;42.31;100423.47;5062491;28;70392;-35
2021/05/05 09:01:50;;;;;;;7.25;3.35;;;;;;;37.87;42.21;100425.13;5066623;28;65940;-35
2021/05/05 09:04:21;;;;;;;5.43;3.53;;;;;;;37.87;42.58;100425.13;5057819;27;70299;-36
2021/05/05 09:06:56;;;;;;;6.88;3.40;;;;;;;37.67;42.23;100401.38;5059330;28;66406;-36
2021/05/05 09:09:37;;;;;;;4.45;3.22;;;;;;;37.74;42.12;100410.09;5046285;28;69429;-37
2021/05/05 09:12:16;;;;;;;4.15;3.50;;;;;;;37.83;42.50;100424.00;5048544;28;65451;-37
2021/05/05 09:14:55;;;;;;;5.65;3.50;;;;;;;37.75;42.15;100410.91;5049155;28;69912;-36
2021/05/05 09:17:31;;;;;;;7.00;3.03;;;;;;;37.73;42.55;100408.47;5050661;28;66139;-36
2021/05/05 09:20:06;;;;;;;4.35;3.40;;;;;;;37.74;42.27;100410.09;5055239;28;69354;-36
2021/05/05 09:22:57;;;;;;;4.22;3.00;;;;;;;37.66;42.80;100404.38;5055400;28;66461;-36
2021/05/05 09:25:30;;;;;;;9.95;3.63;;;;;;;37.69;42.83;100406.53;5046700;28;70256;-36
2021/05/05 09:28:21;;;;;;;10.02;2.95;;;;;;;37.69;42.35;100401.88;5043622;28;65898;-36
2021/05/05 09:31:09;;;;;;;8.65;3.40;;;;;;;37.52;42.94;100384.97;5042247;28;69044;-36
2021/05/05 09:33:45;;;;;;;5.05;3.05;;;;;;;37.62;42.42;100412.31;5040059;28;66481;-35
2021/05/05 09:36:19;;;;;;;10.70;3.08;;;;;;;37.44;43.30;100391.81;5054063;28;69569;-35
2021/05/05 09:38:51;;;;;;;9.52;3.80;;;;;;;37.40;42.67;100400.84;5056312;28;66009;-35
2021/05/05 09:41:24;;;;;;;6.22;3.20;;;;;;;37.48;43.19;100406.63;5044703;28;69174;-36
2021/05/05 09:44:07;;;;;;;5.50;3.92;;;;;;;37.44;43.36;100399.19;5051454;28;66258;-36
2021/05/05 09:49:17;;;;;;;6.55;3.80;;;;;;;37.46;43.44;100397.00;5056107;28;66259;-36
2021/05/05 09:52:12;;;;;;;7.55;3.60;;;;;;;37.17;44.10;100378.47;5052282;28;69706;-37
2021/05/05 09:55:01;;;;;;;6.93;3.60;;;;;;;37.19;43.33;100368.06;5052494;28;65456;-37
2021/05/05 09:57:33;;;;;;;8.63;3.40;;;;;;;37.27;43.66;100372.97;5036359;28;69773;-36
2021/05/05 10:00:07;;;;;;;4.85;3.38;;;;;;;37.26;44.08;100393.22;5044942;28;66156;-35
2021/05/05 10:02:46;;;;;;;8.52;3.55;;;;;;;37.13;44.05;100377.38;5048094;28;71810;-35
2021/05/05 10:05:23;;;;;;;14.60;3.53;;;;;;;37.16;43.85;100406.88;5053731;28;66453;-36
2021/05/05 10:07:59;;;;;;;6.07;4.50;;;;;;;37.20;43.66;100423.59;5046099;28;70190;-36
2021/05/05 10:10:39;;;;;;;4.95;3.83;;;;;;;37.16;43.99;100436.16;5047745;28;66363;-36
2021/05/05 10:13:14;;;;;;;8.95;3.60;;;;;;;37.11;44.25;100439.69;5055100;28;70699;-37
2021/05/05 10:15:44;;;;;;;14.68;3.70;;;;;;;37.12;44.37;100452.28;5040450;28;65472;-35
2021/05/05 10:18:15;;;;;;;12.02;4.43;;;;;;;37.10;44.31;100459.94;5041214;28;70009;-35
2021/05/05 10:20:48;;;;;;;9.05;3.63;;;;;;;37.06;44.58;100469.81;5040953;28;65778;-36
2021/05/05 10:23:18;;;;;;;38.63;5.40;;;;;;;37.01;45.53;100477.97;5049955;28;70787;-37
2021/05/05 10:25:52;;;;;;;51.92;6.68;;;;;;;36.62;46.44;100483.91;5044716;28;65941;-36
2021/05/05 10:28:23;;;;;;;41.22;7.20;;;;;;;36.35;46.89;100475.88;5041633;28;69322;-37
2021/05/05 10:30:55;;;;;;;121.18;10.10;;;;;;;36.14;47.49;100480.44;5039495;28;66187;-37
2021/05/05 10:33:27;;;;;;;207.07;13.85;;;;;;;36.01;47.49;100479.78;5045768;28;69935;-37
2021/05/05 10:36:36;;;;;;;267.05;16.88;;;;;;;35.84;49.07;100481.06;5042018;28;66007;-37
2021/05/05 10:39:18;;;;;;;225.20;16.63;;;;;;;35.79;49.46;100485.38;5039265;28;69083;-38
2021/05/05 10:42:06;;;;;;;166.60;14.52;;;;;;;35.71;50.60;100490.50;5040751;28;65165;-36
2021/05/05 10:44:54;;;;;;;115.57;11.93;;;;;;;35.52;51.13;100469.09;5049756;28;70174;-37
2021/05/05 10:47:34;;;;;;;62.30;8.93;;;;;;;35.38;50.52;100473.31;5045483;28;65460;-36
2021/05/05 10:50:08;;;;;;;44.25;7.38;;;;;;;35.53;50.05;100503.47;5047135;28;69901;-36
2021/05/05 10:52:38;;;;;;;40.70;7.28;;;;;;;35.48;49.54;100508.88;5058619;28;63576;-37
2021/05/05 10:55:13;;;;;;;48.35;7.05;;;;;;;35.37;49.80;100504.41;5048318;28;70299;-37
2021/05/05 10:58:05;;;;;;;29.95;6.50;;;;;;;35.31;49.82;100506.28;5055331;28;66014;-37
2021/05/05 11:00:52;;;;;;;36.90;7.75;;;;;;;35.21;50.05;100498.00;5050105;28;69177;-36
2021/05/05 11:03:46;;;;;;;55.38;8.18;;;;;;;35.27;50.20;100520.69;5044189;28;66341;-36
2021/05/05 11:06:35;;;;;;;43.58;7.82;;;;;;;35.23;51.22;100525.84;5046132;28;70093;-36
2021/05/05 11:11:44;;;;;;;41.47;8.07;;;;;;;35.31;51.73;100516.38;5046930;28;69404;-37
2021/05/05 11:14:24;;;;;;;32.45;7.68;;;;;;;35.19;51.42;100541.09;5050884;28;66975;-38
2021/05/05 11:17:01;;;;;;;44.10;7.57;;;;;;;35.01;50.15;100547.66;5062746;27;70565;-38
2021/05/05 11:19:37;;;;;;;32.33;7.38;;;;;;;34.94;50.56;100549.78;5047812;27;65805;-36
2021/05/05 11:22:19;;;;;;;37.42;7.13;;;;;;;34.94;49.87;100555.25;5040337;28;69838;-36
2021/05/05 11:24:50;;;;;;;;;;;;;;;34.82;49.53;100562.72;5044856;28;65800;-36
2021/05/05 11:27:48;;;;;;;31.90;6.95;;;;;;;34.83;49.03;100569.84;5056244;27;70579;-35
2021/05/05 11:30:48;;;;;;;22.88;6.35;;;;;;;34.85;48.33;100562.22;5048356;28;66118;-35
2021/05/05 11:33:18;;;;;;;30.05;5.97;;;;;;;34.84;48.23;100561.38;5045072;28;70264;-36
2021/05/05 11:35:49;;;;;;;20.92;5.63;;;;;;;34.84;47.22;100566.03;5046210;28;65216;-36
2021/05/05 11:38:23;;;;;;;15.65;5.68;;;;;;;34.63;46.57;100549.44;5046848;28;69438;-35
2021/05/05 11:41:00;;;;;;;20.42;5.03;;;;;;;34.61;47.00;100559.75;5045102;28;65207;-35
2021/05/05 11:43:32;;;;;;;25.60;5.93;;;;;;;34.66;47.11;100597.97;5042149;28;70393;-35
2021/05/05 11:46:04;;;;;;;26.90;6.03;;;;;;;34.63;47.33;100614.81;5054978;28;64877;-36
2021/05/05 11:48:37;;;;;;;20.65;5.20;;;;;;;34.52;46.97;100601.25;5050014;28;69172;-36
2021/05/05 11:51:24;;;;;;;22.08;5.93;;;;;;;34.57;46.72;100613.09;5043121;28;65092;-36
2021/05/05 11:53:54;;;;;;;18.48;4.78;;;;;;;34.56;46.61;100614.16;5049993;28;69884;-36
2021/05/05 11:56:26;;;;;;;22.02;4.63;;;;;;;34.40;46.44;100587.78;5047475;28;65986;-36
2021/05/05 11:59:01;;;;;;;19.58;5.93;;;;;;;34.38;46.30;100598.06;5051206;28;69851;-35
2021/05/05 12:01:39;;;;;;;27.20;5.18;;;;;;;34.43;46.14;100614.50;5049630;28;66727;-37
2021/05/05 12:04:17;;;;;;;33.60;5.70;;;;;;;34.38;46.47;100618.00;5045453;28;69907;-37